Aviation Digital Data Service (ADDS)

Output produced by METARs form (0835 UTC 18 February 2019)
found at http://www.aviationweather.gov/metar/data/
 
Forecast for: LPPT (LISBON/PORTELA , PT)
Text: TAF LPPT 180500Z 1806/1912 35013KT 9999 SCT030
Forecast period: 0600 UTC 18 February 2019 to 0000 UTC 19 February 2019
Forecast type: FROM: standard forecast or significant change
Winds: from the N (350 degrees) at 15 MPH (13 knots; 6.7 m/s)
Visibility: 6 or more miles 10+ km)
Ceiling: at least 12,000 feet AGL
Clouds: scattered clouds at 3000 feet AGL
Weather: no significant weather forecast for this period
Text: TEMPO 1806/1809 6000 -RA SCT012 BKN025
Forecast period: 0600 to 0900 UTC 18 February 2019
Forecast type: TEMPORARY: The following changes expected for less than half the time period
Visibility: 4 miles (6 km)
Ceiling: 2500 feet AGL
Clouds: scattered clouds at 1200 feet AGL
broken clouds at 2500 feet AGL
Weather: -RA  (light rain)
Text: BECMG 1900/1903 VRB03KT FEW015
Forecast period: 0000 to 1200 UTC 19 February 2019
Forecast type: BECOMING: Conditions expected to become as follows by 0300 UTC 19 February 2019
Winds: variable direction winds at 3 MPH (3 knots; 1.5 m/s)
Visibility: 6 or more miles 10+ km)
Ceiling: at least 12,000 feet AGL
Clouds: few clouds at 1500 feet AGL
Weather: no significant weather forecast for this period